Terminal Aerodrome Forecast
Issued by NWS

Home | Current Version | Previous Version | Text Only | Print | Product List | Glossary On
Versions: 1 2 3 4 5 6 7 8 9 10 11 12 13 14
000
FTUS45 KFGZ 071632 AAA
TAFPGA
TAF AMD
KPGA 071632Z 0717/0812 VRB03KT P6SM BKN150
      TEMPO 0717/0720 -SHRA BKN080
     FM072000 30008KT P6SM SCT120
      TEMPO 0720/0724 -TSRA BKN100CB
     FM080300 VRB03KT P6SM FEW150=

USA.gov is the U.S. government's official web portal to all federal, state and local government web resources and services.